sensor_id;sensor_type;location;lat;lon;timestamp;P1;durP1;ratioP1;P2;durP2;ratioP2
20649;SDS011;10484;48.736;9.332;2023-08-12T00:01:39;4.30;;;3.90;;
20649;SDS011;10484;48.736;9.332;2023-08-12T00:04:05;4.63;;;4.23;;
20649;SDS011;10484;48.736;9.332;2023-08-12T00:06:31;5.20;;;4.20;;
20649;SDS011;10484;48.736;9.332;2023-08-12T00:08:56;4.87;;;4.50;;
20649;SDS011;10484;48.736;9.332;2023-08-12T00:11:22;3.73;;;3.43;;
20649;SDS011;10484;48.736;9.332;2023-08-12T00:13:47;4.47;;;4.17;;
20649;SDS011;10484;48.736;9.332;2023-08-12T00:16:13;3.87;;;3.57;;
20649;SDS011;10484;48.736;9.332;2023-08-12T00:18:39;4.53;;;4.00;;
20649;SDS011;10484;48.736;9.332;2023-08-12T00:21:07;4.33;;;4.03;;
20649;SDS011;10484;48.736;9.332;2023-08-12T00:23:38;4.93;;;4.53;;
20649;SDS011;10484;48.736;9.332;2023-08-12T00:26:06;4.60;;;4.20;;
20649;SDS011;10484;48.736;9.332;2023-08-12T00:28:32;3.90;;;3.50;;
20649;SDS011;10484;48.736;9.332;2023-08-12T00:30:58;4.50;;;3.80;;
20649;SDS011;10484;48.736;9.332;2023-08-12T00:33:24;4.40;;;4.00;;
20649;SDS011;10484;48.736;9.332;2023-08-12T00:35:49;4.73;;;4.30;;
20649;SDS011;10484;48.736;9.332;2023-08-12T00:38:15;4.40;;;4.00;;
20649;SDS011;10484;48.736;9.332;2023-08-12T00:40:41;4.70;;;4.30;;
20649;SDS011;10484;48.736;9.332;2023-08-12T00:43:07;6.00;;;3.80;;
20649;SDS011;10484;48.736;9.332;2023-08-12T00:45:34;4.07;;;3.77;;
20649;SDS011;10484;48.736;9.332;2023-08-12T00:48:00;4.30;;;3.80;;
20649;SDS011;10484;48.736;9.332;2023-08-12T00:50:26;4.33;;;3.90;;
20649;SDS011;10484;48.736;9.332;2023-08-12T00:52:51;4.23;;;3.93;;
20649;SDS011;10484;48.736;9.332;2023-08-12T00:55:17;4.20;;;3.90;;
20649;SDS011;10484;48.736;9.332;2023-08-12T00:57:43;5.17;;;3.93;;
20649;SDS011;10484;48.736;9.332;2023-08-12T01:00:09;4.37;;;4.00;;
20649;SDS011;10484;48.736;9.332;2023-08-12T01:02:35;4.10;;;3.80;;
20649;SDS011;10484;48.736;9.332;2023-08-12T01:05:01;3.70;;;3.40;;
20649;SDS011;10484;48.736;9.332;2023-08-12T01:07:27;4.37;;;4.07;;
20649;SDS011;10484;48.736;9.332;2023-08-12T01:09:52;4.53;;;4.23;;
20649;SDS011;10484;48.736;9.332;2023-08-12T01:12:21;4.63;;;4.23;;
20649;SDS011;10484;48.736;9.332;2023-08-12T01:14:56;3.70;;;3.47;;
20649;SDS011;10484;48.736;9.332;2023-08-12T01:17:36;4.50;;;4.10;;
20649;SDS011;10484;48.736;9.332;2023-08-12T01:20:04;3.90;;;3.50;;
20649;SDS011;10484;48.736;9.332;2023-08-12T01:22:39;3.90;;;3.60;;
20649;SDS011;10484;48.736;9.332;2023-08-12T01:25:06;4.53;;;4.13;;
20649;SDS011;10484;48.736;9.332;2023-08-12T01:27:34;4.40;;;4.07;;
20649;SDS011;10484;48.736;9.332;2023-08-12T01:30:01;5.80;;;4.53;;
20649;SDS011;10484;48.736;9.332;2023-08-12T01:32:34;4.50;;;4.10;;
20649;SDS011;10484;48.736;9.332;2023-08-12T01:37:42;4.37;;;3.97;;
20649;SDS011;10484;48.736;9.332;2023-08-12T01:40:10;4.37;;;3.90;;
20649;SDS011;10484;48.736;9.332;2023-08-12T01:42:36;4.80;;;4.40;;
20649;SDS011;10484;48.736;9.332;2023-08-12T01:45:05;4.40;;;3.73;;
20649;SDS011;10484;48.736;9.332;2023-08-12T01:47:31;4.03;;;3.80;;
20649;SDS011;10484;48.736;9.332;2023-08-12T01:49:57;3.90;;;3.60;;
20649;SDS011;10484;48.736;9.332;2023-08-12T01:52:23;5.00;;;4.60;;
20649;SDS011;10484;48.736;9.332;2023-08-12T01:54:49;5.13;;;4.63;;
20649;SDS011;10484;48.736;9.332;2023-08-12T01:57:15;4.30;;;3.80;;
20649;SDS011;10484;48.736;9.332;2023-08-12T01:59:40;4.07;;;3.77;;
20649;SDS011;10484;48.736;9.332;2023-08-12T02:02:08;4.53;;;4.17;;
20649;SDS011;10484;48.736;9.332;2023-08-12T02:04:34;4.60;;;4.20;;
20649;SDS011;10484;48.736;9.332;2023-08-12T02:07:01;3.77;;;3.47;;
20649;SDS011;10484;48.736;9.332;2023-08-12T02:09:27;4.80;;;4.30;;
20649;SDS011;10484;48.736;9.332;2023-08-12T02:11:52;4.47;;;4.17;;
20649;SDS011;10484;48.736;9.332;2023-08-12T02:14:18;4.70;;;4.30;;
20649;SDS011;10484;48.736;9.332;2023-08-12T02:16:43;4.13;;;3.83;;
20649;SDS011;10484;48.736;9.332;2023-08-12T02:19:09;4.53;;;4.20;;
20649;SDS011;10484;48.736;9.332;2023-08-12T02:21:34;4.70;;;4.37;;
20649;SDS011;10484;48.736;9.332;2023-08-12T02:24:00;4.53;;;4.13;;
20649;SDS011;10484;48.736;9.332;2023-08-12T02:26:26;5.20;;;3.67;;
20649;SDS011;10484;48.736;9.332;2023-08-12T02:28:51;5.20;;;4.80;;
20649;SDS011;10484;48.736;9.332;2023-08-12T02:31:17;5.33;;;4.83;;
20649;SDS011;10484;48.736;9.332;2023-08-12T02:33:43;4.97;;;4.47;;
20649;SDS011;10484;48.736;9.332;2023-08-12T02:36:08;5.10;;;4.60;;
20649;SDS011;10484;48.736;9.332;2023-08-12T02:38:34;4.00;;;3.70;;
20649;SDS011;10484;48.736;9.332;2023-08-12T02:40:59;4.57;;;4.17;;
20649;SDS011;10484;48.736;9.332;2023-08-12T02:43:25;6.90;;;4.67;;
20649;SDS011;10484;48.736;9.332;2023-08-12T02:45:51;4.67;;;4.17;;
20649;SDS011;10484;48.736;9.332;2023-08-12T02:48:17;5.20;;;3.77;;
20649;SDS011;10484;48.736;9.332;2023-08-12T02:50:42;4.80;;;4.43;;
20649;SDS011;10484;48.736;9.332;2023-08-12T02:53:08;4.90;;;4.50;;
20649;SDS011;10484;48.736;9.332;2023-08-12T02:55:33;7.43;;;4.20;;
20649;SDS011;10484;48.736;9.332;2023-08-12T02:58:00;5.33;;;4.83;;
20649;SDS011;10484;48.736;9.332;2023-08-12T03:00:26;5.50;;;5.10;;
20649;SDS011;10484;48.736;9.332;2023-08-12T03:02:52;4.40;;;4.10;;
20649;SDS011;10484;48.736;9.332;2023-08-12T03:05:18;5.23;;;4.83;;
20649;SDS011;10484;48.736;9.332;2023-08-12T03:07:44;5.00;;;4.60;;
20649;SDS011;10484;48.736;9.332;2023-08-12T03:10:10;5.27;;;4.77;;
20649;SDS011;10484;48.736;9.332;2023-08-12T03:12:36;4.63;;;4.23;;
20649;SDS011;10484;48.736;9.332;2023-08-12T03:15:02;4.70;;;4.30;;
20649;SDS011;10484;48.736;9.332;2023-08-12T03:17:28;4.67;;;4.27;;
20649;SDS011;10484;48.736;9.332;2023-08-12T03:19:54;5.23;;;4.73;;
20649;SDS011;10484;48.736;9.332;2023-08-12T03:22:20;5.23;;;4.70;;
20649;SDS011;10484;48.736;9.332;2023-08-12T03:24:46;5.23;;;4.83;;
20649;SDS011;10484;48.736;9.332;2023-08-12T03:27:12;4.60;;;4.20;;
20649;SDS011;10484;48.736;9.332;2023-08-12T03:29:38;4.80;;;4.40;;
20649;SDS011;10484;48.736;9.332;2023-08-12T03:32:03;4.37;;;4.07;;
20649;SDS011;10484;48.736;9.332;2023-08-12T03:34:29;4.80;;;4.40;;
20649;SDS011;10484;48.736;9.332;2023-08-12T03:36:55;6.07;;;4.63;;
20649;SDS011;10484;48.736;9.332;2023-08-12T03:39:20;3.97;;;3.67;;
20649;SDS011;10484;48.736;9.332;2023-08-12T03:41:46;5.20;;;4.63;;
20649;SDS011;10484;48.736;9.332;2023-08-12T03:44:11;5.23;;;4.77;;
20649;SDS011;10484;48.736;9.332;2023-08-12T03:46:37;4.97;;;4.53;;
20649;SDS011;10484;48.736;9.332;2023-08-12T03:49:03;4.67;;;4.27;;
20649;SDS011;10484;48.736;9.332;2023-08-12T03:51:28;7.03;;;5.27;;
20649;SDS011;10484;48.736;9.332;2023-08-12T03:53:54;5.03;;;4.63;;
20649;SDS011;10484;48.736;9.332;2023-08-12T03:56:19;5.13;;;4.63;;
20649;SDS011;10484;48.736;9.332;2023-08-12T03:58:45;6.10;;;5.60;;
20649;SDS011;10484;48.736;9.332;2023-08-12T04:01:11;4.33;;;4.03;;
20649;SDS011;10484;48.736;9.332;2023-08-12T04:03:36;4.50;;;4.10;;
20649;SDS011;10484;48.736;9.332;2023-08-12T04:06:02;4.30;;;4.00;;
20649;SDS011;10484;48.736;9.332;2023-08-12T04:08:28;5.30;;;4.90;;
20649;SDS011;10484;48.736;9.332;2023-08-12T04:10:54;8.60;;;5.70;;
20649;SDS011;10484;48.736;9.332;2023-08-12T04:13:19;5.50;;;5.00;;
20649;SDS011;10484;48.736;9.332;2023-08-12T04:15:51;5.40;;;5.00;;
20649;SDS011;10484;48.736;9.332;2023-08-12T04:18:20;5.23;;;4.73;;
20649;SDS011;10484;48.736;9.332;2023-08-12T04:20:46;5.33;;;4.90;;
20649;SDS011;10484;48.736;9.332;2023-08-12T04:23:13;4.70;;;4.40;;
20649;SDS011;10484;48.736;9.332;2023-08-12T04:25:39;5.17;;;4.57;;
20649;SDS011;10484;48.736;9.332;2023-08-12T04:28:05;4.90;;;4.50;;
20649;SDS011;10484;48.736;9.332;2023-08-12T04:30:30;5.90;;;5.40;;
20649;SDS011;10484;48.736;9.332;2023-08-12T04:32:56;5.60;;;5.10;;
20649;SDS011;10484;48.736;9.332;2023-08-12T04:35:22;4.83;;;4.40;;
20649;SDS011;10484;48.736;9.332;2023-08-12T04:37:47;5.00;;;4.60;;
20649;SDS011;10484;48.736;9.332;2023-08-12T04:40:13;4.97;;;4.60;;
20649;SDS011;10484;48.736;9.332;2023-08-12T04:42:38;4.97;;;4.57;;
20649;SDS011;10484;48.736;9.332;2023-08-12T04:45:04;4.90;;;4.50;;
20649;SDS011;10484;48.736;9.332;2023-08-12T04:47:30;5.13;;;4.73;;
20649;SDS011;10484;48.736;9.332;2023-08-12T04:49:55;4.73;;;4.33;;
20649;SDS011;10484;48.736;9.332;2023-08-12T04:52:21;5.87;;;5.37;;
20649;SDS011;10484;48.736;9.332;2023-08-12T04:54:47;4.50;;;4.10;;
20649;SDS011;10484;48.736;9.332;2023-08-12T04:57:12;4.87;;;4.33;;
20649;SDS011;10484;48.736;9.332;2023-08-12T04:59:38;6.80;;;5.20;;
20649;SDS011;10484;48.736;9.332;2023-08-12T05:02:03;5.23;;;4.73;;
20649;SDS011;10484;48.736;9.332;2023-08-12T05:04:30;5.80;;;5.20;;
20649;SDS011;10484;48.736;9.332;2023-08-12T05:06:55;4.87;;;4.47;;
20649;SDS011;10484;48.736;9.332;2023-08-12T05:09:21;4.67;;;4.27;;
20649;SDS011;10484;48.736;9.332;2023-08-12T05:11:47;5.30;;;4.80;;
20649;SDS011;10484;48.736;9.332;2023-08-12T05:14:12;5.33;;;4.93;;
20649;SDS011;10484;48.736;9.332;2023-08-12T05:16:38;4.90;;;4.60;;
20649;SDS011;10484;48.736;9.332;2023-08-12T05:19:03;6.00;;;5.50;;
20649;SDS011;10484;48.736;9.332;2023-08-12T05:21:29;5.77;;;5.20;;
20649;SDS011;10484;48.736;9.332;2023-08-12T05:23:54;6.27;;;5.70;;
20649;SDS011;10484;48.736;9.332;2023-08-12T05:26:20;5.10;;;4.70;;
20649;SDS011;10484;48.736;9.332;2023-08-12T05:28:46;5.90;;;5.50;;
20649;SDS011;10484;48.736;9.332;2023-08-12T05:31:11;5.30;;;4.90;;
20649;SDS011;10484;48.736;9.332;2023-08-12T05:33:37;5.10;;;4.70;;
20649;SDS011;10484;48.736;9.332;2023-08-12T05:36:03;5.40;;;4.97;;
20649;SDS011;10484;48.736;9.332;2023-08-12T05:38:28;5.83;;;5.33;;
20649;SDS011;10484;48.736;9.332;2023-08-12T05:40:54;5.03;;;4.53;;
20649;SDS011;10484;48.736;9.332;2023-08-12T05:43:19;5.60;;;5.10;;
20649;SDS011;10484;48.736;9.332;2023-08-12T05:45:45;5.50;;;5.10;;
20649;SDS011;10484;48.736;9.332;2023-08-12T05:48:11;7.60;;;5.77;;
20649;SDS011;10484;48.736;9.332;2023-08-12T05:50:36;5.23;;;4.83;;
20649;SDS011;10484;48.736;9.332;2023-08-12T05:53:02;6.20;;;5.70;;
20649;SDS011;10484;48.736;9.332;2023-08-12T05:55:27;6.13;;;5.53;;
20649;SDS011;10484;48.736;9.332;2023-08-12T05:57:53;5.73;;;5.30;;
20649;SDS011;10484;48.736;9.332;2023-08-12T06:00:19;5.97;;;5.57;;
20649;SDS011;10484;48.736;9.332;2023-08-12T06:02:44;6.30;;;5.70;;
20649;SDS011;10484;48.736;9.332;2023-08-12T06:05:10;6.10;;;5.60;;
20649;SDS011;10484;48.736;9.332;2023-08-12T06:07:35;5.30;;;4.87;;
20649;SDS011;10484;48.736;9.332;2023-08-12T06:10:01;6.27;;;5.73;;
20649;SDS011;10484;48.736;9.332;2023-08-12T06:12:27;5.93;;;5.43;;
20649;SDS011;10484;48.736;9.332;2023-08-12T06:14:53;7.17;;;5.27;;
20649;SDS011;10484;48.736;9.332;2023-08-12T06:17:18;5.13;;;4.73;;
20649;SDS011;10484;48.736;9.332;2023-08-12T06:19:44;5.60;;;5.20;;
20649;SDS011;10484;48.736;9.332;2023-08-12T06:22:09;6.07;;;5.57;;
20649;SDS011;10484;48.736;9.332;2023-08-12T06:24:35;5.30;;;4.90;;
20649;SDS011;10484;48.736;9.332;2023-08-12T06:27:00;5.20;;;4.80;;
20649;SDS011;10484;48.736;9.332;2023-08-12T06:29:26;6.07;;;5.57;;
20649;SDS011;10484;48.736;9.332;2023-08-12T06:31:52;5.47;;;5.07;;
20649;SDS011;10484;48.736;9.332;2023-08-12T06:34:18;5.43;;;5.03;;
20649;SDS011;10484;48.736;9.332;2023-08-12T06:36:43;5.13;;;4.73;;
20649;SDS011;10484;48.736;9.332;2023-08-12T06:39:09;5.50;;;5.10;;
20649;SDS011;10484;48.736;9.332;2023-08-12T06:41:34;5.93;;;5.10;;
20649;SDS011;10484;48.736;9.332;2023-08-12T06:44:00;5.27;;;4.57;;
20649;SDS011;10484;48.736;9.332;2023-08-12T06:46:26;5.70;;;5.27;;
20649;SDS011;10484;48.736;9.332;2023-08-12T06:48:51;5.60;;;5.00;;
20649;SDS011;10484;48.736;9.332;2023-08-12T06:51:17;5.40;;;4.90;;
20649;SDS011;10484;48.736;9.332;2023-08-12T06:53:42;5.70;;;5.20;;
20649;SDS011;10484;48.736;9.332;2023-08-12T06:56:08;6.10;;;5.60;;
20649;SDS011;10484;48.736;9.332;2023-08-12T06:58:34;6.07;;;5.57;;
20649;SDS011;10484;48.736;9.332;2023-08-12T07:00:59;5.67;;;5.17;;
20649;SDS011;10484;48.736;9.332;2023-08-12T07:03:25;6.33;;;5.70;;
20649;SDS011;10484;48.736;9.332;2023-08-12T07:05:52;6.27;;;5.70;;
20649;SDS011;10484;48.736;9.332;2023-08-12T07:08:18;6.23;;;5.60;;
20649;SDS011;10484;48.736;9.332;2023-08-12T07:10:43;7.33;;;5.73;;
20649;SDS011;10484;48.736;9.332;2023-08-12T07:13:10;6.77;;;6.17;;
20649;SDS011;10484;48.736;9.332;2023-08-12T07:15:35;6.80;;;6.20;;
20649;SDS011;10484;48.736;9.332;2023-08-12T07:18:01;5.90;;;5.37;;
20649;SDS011;10484;48.736;9.332;2023-08-12T07:20:27;6.23;;;5.77;;
20649;SDS011;10484;48.736;9.332;2023-08-12T07:22:53;6.00;;;5.50;;
20649;SDS011;10484;48.736;9.332;2023-08-12T07:25:18;6.67;;;6.17;;
20649;SDS011;10484;48.736;9.332;2023-08-12T07:27:44;5.90;;;5.47;;
20649;SDS011;10484;48.736;9.332;2023-08-12T07:30:09;6.53;;;5.93;;
20649;SDS011;10484;48.736;9.332;2023-08-12T07:32:36;6.27;;;5.73;;
20649;SDS011;10484;48.736;9.332;2023-08-12T07:35:02;6.57;;;5.83;;
20649;SDS011;10484;48.736;9.332;2023-08-12T07:37:30;6.33;;;5.43;;
20649;SDS011;10484;48.736;9.332;2023-08-12T07:39:55;5.23;;;4.73;;
20649;SDS011;10484;48.736;9.332;2023-08-12T07:42:21;5.37;;;4.97;;
20649;SDS011;10484;48.736;9.332;2023-08-12T07:44:46;5.80;;;5.30;;
20649;SDS011;10484;48.736;9.332;2023-08-12T07:47:12;6.77;;;6.17;;
20649;SDS011;10484;48.736;9.332;2023-08-12T07:49:37;5.47;;;5.07;;
20649;SDS011;10484;48.736;9.332;2023-08-12T07:52:03;5.90;;;5.50;;
20649;SDS011;10484;48.736;9.332;2023-08-12T07:54:29;5.00;;;4.60;;
20649;SDS011;10484;48.736;9.332;2023-08-12T07:56:55;9.73;;;5.53;;
20649;SDS011;10484;48.736;9.332;2023-08-12T07:59:20;4.60;;;4.30;;
20649;SDS011;10484;48.736;9.332;2023-08-12T08:01:46;5.60;;;5.13;;
20649;SDS011;10484;48.736;9.332;2023-08-12T08:04:12;5.37;;;4.97;;
20649;SDS011;10484;48.736;9.332;2023-08-12T08:06:37;4.70;;;4.33;;
20649;SDS011;10484;48.736;9.332;2023-08-12T08:09:03;5.87;;;5.00;;
20649;SDS011;10484;48.736;9.332;2023-08-12T08:11:29;5.83;;;5.10;;
20649;SDS011;10484;48.736;9.332;2023-08-12T08:13:57;4.93;;;4.43;;
20649;SDS011;10484;48.736;9.332;2023-08-12T08:16:23;5.90;;;4.90;;
20649;SDS011;10484;48.736;9.332;2023-08-12T08:18:48;6.40;;;5.30;;
20649;SDS011;10484;48.736;9.332;2023-08-12T08:21:14;5.70;;;5.20;;
20649;SDS011;10484;48.736;9.332;2023-08-12T08:23:40;5.90;;;5.40;;
20649;SDS011;10484;48.736;9.332;2023-08-12T08:26:06;4.60;;;4.20;;
20649;SDS011;10484;48.736;9.332;2023-08-12T08:28:32;5.77;;;4.77;;
20649;SDS011;10484;48.736;9.332;2023-08-12T08:30:59;5.00;;;4.63;;
20649;SDS011;10484;48.736;9.332;2023-08-12T08:33:25;6.03;;;4.70;;
20649;SDS011;10484;48.736;9.332;2023-08-12T08:35:51;4.60;;;4.20;;
20649;SDS011;10484;48.736;9.332;2023-08-12T08:38:16;6.40;;;5.80;;
20649;SDS011;10484;48.736;9.332;2023-08-12T08:40:42;5.43;;;4.27;;
20649;SDS011;10484;48.736;9.332;2023-08-12T08:43:08;5.63;;;5.07;;
20649;SDS011;10484;48.736;9.332;2023-08-12T08:45:35;4.90;;;4.40;;
20649;SDS011;10484;48.736;9.332;2023-08-12T08:48:02;5.00;;;4.60;;
20649;SDS011;10484;48.736;9.332;2023-08-12T08:50:28;4.60;;;4.23;;
20649;SDS011;10484;48.736;9.332;2023-08-12T08:52:55;4.27;;;3.97;;
20649;SDS011;10484;48.736;9.332;2023-08-12T08:55:21;5.20;;;4.70;;
20649;SDS011;10484;48.736;9.332;2023-08-12T08:57:47;5.10;;;4.70;;
20649;SDS011;10484;48.736;9.332;2023-08-12T09:00:15;5.00;;;4.53;;
20649;SDS011;10484;48.736;9.332;2023-08-12T09:02:41;4.73;;;4.33;;
20649;SDS011;10484;48.736;9.332;2023-08-12T09:05:09;5.00;;;4.60;;
20649;SDS011;10484;48.736;9.332;2023-08-12T09:07:36;4.70;;;4.30;;
20649;SDS011;10484;48.736;9.332;2023-08-12T09:10:02;5.47;;;4.80;;
20649;SDS011;10484;48.736;9.332;2023-08-12T09:12:29;4.63;;;4.23;;
20649;SDS011;10484;48.736;9.332;2023-08-12T09:14:55;4.40;;;3.87;;
20649;SDS011;10484;48.736;9.332;2023-08-12T09:17:20;4.33;;;4.03;;
20649;SDS011;10484;48.736;9.332;2023-08-12T09:19:46;5.13;;;4.30;;
20649;SDS011;10484;48.736;9.332;2023-08-12T09:22:11;4.70;;;4.30;;
20649;SDS011;10484;48.736;9.332;2023-08-12T09:24:38;5.03;;;4.07;;
20649;SDS011;10484;48.736;9.332;2023-08-12T09:27:04;4.73;;;4.33;;
20649;SDS011;10484;48.736;9.332;2023-08-12T09:29:30;5.10;;;4.70;;
20649;SDS011;10484;48.736;9.332;2023-08-12T09:32:13;4.37;;;3.97;;
20649;SDS011;10484;48.736;9.332;2023-08-12T09:37:16;4.00;;;3.70;;
20649;SDS011;10484;48.736;9.332;2023-08-12T09:39:43;4.40;;;4.00;;
20649;SDS011;10484;48.736;9.332;2023-08-12T09:42:10;4.17;;;3.83;;
20649;SDS011;10484;48.736;9.332;2023-08-12T09:44:36;4.43;;;4.10;;
20649;SDS011;10484;48.736;9.332;2023-08-12T09:47:02;4.23;;;3.83;;
20649;SDS011;10484;48.736;9.332;2023-08-12T09:49:28;4.07;;;3.77;;
20649;SDS011;10484;48.736;9.332;2023-08-12T09:51:54;3.93;;;3.57;;
20649;SDS011;10484;48.736;9.332;2023-08-12T09:54:20;4.70;;;4.30;;
20649;SDS011;10484;48.736;9.332;2023-08-12T09:56:47;6.33;;;4.57;;
20649;SDS011;10484;48.736;9.332;2023-08-12T09:59:18;4.00;;;3.70;;
20649;SDS011;10484;48.736;9.332;2023-08-12T10:01:48;3.77;;;3.47;;
20649;SDS011;10484;48.736;9.332;2023-08-12T10:04:16;3.83;;;3.43;;
20649;SDS011;10484;48.736;9.332;2023-08-12T10:06:46;5.63;;;4.00;;
20649;SDS011;10484;48.736;9.332;2023-08-12T10:09:14;3.73;;;3.43;;
20649;SDS011;10484;48.736;9.332;2023-08-12T10:11:41;4.10;;;3.80;;
20649;SDS011;10484;48.736;9.332;2023-08-12T10:14:08;4.37;;;4.03;;
20649;SDS011;10484;48.736;9.332;2023-08-12T10:16:35;4.17;;;3.80;;
20649;SDS011;10484;48.736;9.332;2023-08-12T10:19:02;3.80;;;3.60;;
20649;SDS011;10484;48.736;9.332;2023-08-12T10:21:30;4.73;;;3.50;;
20649;SDS011;10484;48.736;9.332;2023-08-12T10:23:58;3.20;;;2.90;;
20649;SDS011;10484;48.736;9.332;2023-08-12T10:26:24;3.50;;;3.20;;
20649;SDS011;10484;48.736;9.332;2023-08-12T10:28:50;2.73;;;2.53;;
20649;SDS011;10484;48.736;9.332;2023-08-12T10:31:16;4.23;;;2.90;;
20649;SDS011;10484;48.736;9.332;2023-08-12T10:33:41;2.90;;;2.70;;
20649;SDS011;10484;48.736;9.332;2023-08-12T10:36:08;3.00;;;2.80;;
20649;SDS011;10484;48.736;9.332;2023-08-12T10:38:33;2.83;;;2.53;;
20649;SDS011;10484;48.736;9.332;2023-08-12T10:41:14;3.50;;;3.20;;
20649;SDS011;10484;48.736;9.332;2023-08-12T10:46:22;3.23;;;2.93;;
20649;SDS011;10484;48.736;9.332;2023-08-12T10:48:56;2.70;;;2.50;;
20649;SDS011;10484;48.736;9.332;2023-08-12T10:54:20;3.67;;;2.93;;
20649;SDS011;10484;48.736;9.332;2023-08-12T10:59:59;2.73;;;2.47;;
20649;SDS011;10484;48.736;9.332;2023-08-12T11:02:26;4.03;;;3.30;;
20649;SDS011;10484;48.736;9.332;2023-08-12T11:05:07;3.53;;;2.93;;
20649;SDS011;10484;48.736;9.332;2023-08-12T11:07:38;4.87;;;3.33;;
20649;SDS011;10484;48.736;9.332;2023-08-12T11:10:27;3.60;;;3.30;;
20649;SDS011;10484;48.736;9.332;2023-08-12T11:18:07;2.90;;;2.70;;
20649;SDS011;10484;48.736;9.332;2023-08-12T11:20:35;3.67;;;3.33;;
20649;SDS011;10484;48.736;9.332;2023-08-12T11:23:02;3.13;;;2.83;;
20649;SDS011;10484;48.736;9.332;2023-08-12T11:25:28;3.00;;;2.80;;
20649;SDS011;10484;48.736;9.332;2023-08-12T11:27:55;3.40;;;3.10;;
20649;SDS011;10484;48.736;9.332;2023-08-12T11:30:22;4.33;;;2.90;;
20649;SDS011;10484;48.736;9.332;2023-08-12T11:32:48;3.73;;;3.43;;
20649;SDS011;10484;48.736;9.332;2023-08-12T11:35:15;3.73;;;3.40;;
20649;SDS011;10484;48.736;9.332;2023-08-12T11:37:43;3.20;;;3.00;;
20649;SDS011;10484;48.736;9.332;2023-08-12T11:40:10;3.60;;;3.33;;
20649;SDS011;10484;48.736;9.332;2023-08-12T11:42:40;3.40;;;3.10;;
20649;SDS011;10484;48.736;9.332;2023-08-12T11:45:07;4.07;;;3.30;;
20649;SDS011;10484;48.736;9.332;2023-08-12T11:47:36;3.50;;;3.20;;
20649;SDS011;10484;48.736;9.332;2023-08-12T11:50:04;4.03;;;3.50;;
20649;SDS011;10484;48.736;9.332;2023-08-12T11:52:34;3.53;;;3.13;;
20649;SDS011;10484;48.736;9.332;2023-08-12T11:55:01;3.17;;;2.87;;
20649;SDS011;10484;48.736;9.332;2023-08-12T11:57:27;3.33;;;3.03;;
20649;SDS011;10484;48.736;9.332;2023-08-12T12:00:14;3.10;;;2.80;;
20649;SDS011;10484;48.736;9.332;2023-08-12T12:02:40;3.70;;;3.40;;
20649;SDS011;10484;48.736;9.332;2023-08-12T12:05:10;3.03;;;2.77;;
20649;SDS011;10484;48.736;9.332;2023-08-12T12:07:37;2.80;;;2.60;;
20649;SDS011;10484;48.736;9.332;2023-08-12T12:10:03;3.80;;;3.40;;
20649;SDS011;10484;48.736;9.332;2023-08-12T12:12:30;4.33;;;3.67;;
20649;SDS011;10484;48.736;9.332;2023-08-12T12:15:01;2.77;;;2.57;;
20649;SDS011;10484;48.736;9.332;2023-08-12T12:17:28;3.30;;;2.80;;
20649;SDS011;10484;48.736;9.332;2023-08-12T12:19:57;3.30;;;2.87;;
20649;SDS011;10484;48.736;9.332;2023-08-12T12:22:28;3.13;;;2.83;;
20649;SDS011;10484;48.736;9.332;2023-08-12T12:24:54;3.80;;;3.07;;
20649;SDS011;10484;48.736;9.332;2023-08-12T12:27:22;4.27;;;3.00;;
20649;SDS011;10484;48.736;9.332;2023-08-12T12:29:49;4.10;;;2.60;;
20649;SDS011;10484;48.736;9.332;2023-08-12T12:32:17;3.17;;;2.40;;
20649;SDS011;10484;48.736;9.332;2023-08-12T12:34:44;3.73;;;3.13;;
20649;SDS011;10484;48.736;9.332;2023-08-12T12:37:09;3.60;;;3.10;;
20649;SDS011;10484;48.736;9.332;2023-08-12T12:39:35;4.50;;;3.00;;
20649;SDS011;10484;48.736;9.332;2023-08-12T12:42:00;6.90;;;3.23;;
20649;SDS011;10484;48.736;9.332;2023-08-12T12:44:26;10.27;;;4.70;;
20649;SDS011;10484;48.736;9.332;2023-08-12T12:46:52;7.93;;;3.90;;
20649;SDS011;10484;48.736;9.332;2023-08-12T12:49:18;7.17;;;3.43;;
20649;SDS011;10484;48.736;9.332;2023-08-12T12:51:44;4.23;;;2.83;;
20649;SDS011;10484;48.736;9.332;2023-08-12T12:54:10;2.70;;;2.50;;
20649;SDS011;10484;48.736;9.332;2023-08-12T12:56:35;7.80;;;2.70;;
20649;SDS011;10484;48.736;9.332;2023-08-12T12:59:01;5.40;;;2.97;;
20649;SDS011;10484;48.736;9.332;2023-08-12T13:01:26;5.50;;;3.57;;
20649;SDS011;10484;48.736;9.332;2023-08-12T13:03:52;5.07;;;3.40;;
20649;SDS011;10484;48.736;9.332;2023-08-12T13:06:18;5.97;;;2.90;;
20649;SDS011;10484;48.736;9.332;2023-08-12T13:08:43;4.40;;;3.37;;
20649;SDS011;10484;48.736;9.332;2023-08-12T13:11:09;3.83;;;3.40;;
20649;SDS011;10484;48.736;9.332;2023-08-12T13:13:34;3.97;;;2.53;;
20649;SDS011;10484;48.736;9.332;2023-08-12T13:16:00;4.90;;;2.70;;
20649;SDS011;10484;48.736;9.332;2023-08-12T13:18:25;3.20;;;2.83;;
20649;SDS011;10484;48.736;9.332;2023-08-12T13:20:51;5.03;;;3.37;;
20649;SDS011;10484;48.736;9.332;2023-08-12T13:23:17;4.10;;;3.00;;
20649;SDS011;10484;48.736;9.332;2023-08-12T13:25:42;3.10;;;2.73;;
20649;SDS011;10484;48.736;9.332;2023-08-12T13:28:08;4.43;;;2.90;;
20649;SDS011;10484;48.736;9.332;2023-08-12T13:30:34;2.90;;;2.67;;
20649;SDS011;10484;48.736;9.332;2023-08-12T13:33:00;3.90;;;3.03;;
20649;SDS011;10484;48.736;9.332;2023-08-12T13:35:25;3.73;;;3.10;;
20649;SDS011;10484;48.736;9.332;2023-08-12T13:37:51;3.87;;;3.57;;
20649;SDS011;10484;48.736;9.332;2023-08-12T13:40:17;3.90;;;3.50;;
20649;SDS011;10484;48.736;9.332;2023-08-12T13:42:42;3.90;;;3.00;;
20649;SDS011;10484;48.736;9.332;2023-08-12T13:45:09;4.33;;;3.47;;
20649;SDS011;10484;48.736;9.332;2023-08-12T13:47:36;3.60;;;3.30;;
20649;SDS011;10484;48.736;9.332;2023-08-12T13:50:02;3.40;;;3.20;;
20649;SDS011;10484;48.736;9.332;2023-08-12T13:52:28;4.50;;;3.77;;
20649;SDS011;10484;48.736;9.332;2023-08-12T13:54:54;4.00;;;3.70;;
20649;SDS011;10484;48.736;9.332;2023-08-12T13:57:19;5.83;;;4.07;;
20649;SDS011;10484;48.736;9.332;2023-08-12T13:59:45;4.00;;;3.70;;
20649;SDS011;10484;48.736;9.332;2023-08-12T14:02:12;4.73;;;4.33;;
20649;SDS011;10484;48.736;9.332;2023-08-12T14:04:38;4.20;;;3.80;;
20649;SDS011;10484;48.736;9.332;2023-08-12T14:07:04;5.73;;;3.90;;
20649;SDS011;10484;48.736;9.332;2023-08-12T14:09:30;4.40;;;4.00;;
20649;SDS011;10484;48.736;9.332;2023-08-12T14:11:56;4.60;;;4.20;;
20649;SDS011;10484;48.736;9.332;2023-08-12T14:14:22;5.30;;;4.30;;
20649;SDS011;10484;48.736;9.332;2023-08-12T14:16:52;3.93;;;3.53;;
20649;SDS011;10484;48.736;9.332;2023-08-12T14:19:18;5.70;;;4.10;;
20649;SDS011;10484;48.736;9.332;2023-08-12T14:21:44;4.10;;;3.57;;
20649;SDS011;10484;48.736;9.332;2023-08-12T14:24:09;3.13;;;2.83;;
20649;SDS011;10484;48.736;9.332;2023-08-12T14:26:35;3.37;;;3.07;;
20649;SDS011;10484;48.736;9.332;2023-08-12T14:29:00;3.27;;;2.97;;
20649;SDS011;10484;48.736;9.332;2023-08-12T14:31:26;3.00;;;2.80;;
20649;SDS011;10484;48.736;9.332;2023-08-12T14:33:52;3.13;;;2.50;;
20649;SDS011;10484;48.736;9.332;2023-08-12T14:36:17;3.40;;;2.47;;
20649;SDS011;10484;48.736;9.332;2023-08-12T14:38:43;2.80;;;2.53;;
20649;SDS011;10484;48.736;9.332;2023-08-12T14:41:08;3.00;;;2.70;;
20649;SDS011;10484;48.736;9.332;2023-08-12T14:43:34;4.83;;;2.40;;
20649;SDS011;10484;48.736;9.332;2023-08-12T14:46:00;2.53;;;2.33;;
20649;SDS011;10484;48.736;9.332;2023-08-12T14:48:26;2.33;;;2.07;;
20649;SDS011;10484;48.736;9.332;2023-08-12T14:50:51;2.47;;;2.30;;
20649;SDS011;10484;48.736;9.332;2023-08-12T14:53:17;2.23;;;2.03;;
20649;SDS011;10484;48.736;9.332;2023-08-12T14:55:42;2.27;;;2.07;;
20649;SDS011;10484;48.736;9.332;2023-08-12T14:58:08;2.50;;;1.90;;
20649;SDS011;10484;48.736;9.332;2023-08-12T15:00:34;1.97;;;1.83;;
20649;SDS011;10484;48.736;9.332;2023-08-12T15:02:59;2.03;;;1.80;;